Time;durP1;ratioP1;P1;durP2;ratioP2;P2;SDS_P1;SDS_P2;PMS_P1;PMS_P2;Temp;Humidity;BMP_temperature;BMP_pressure;BME280_temperature;BME280_humidity;BME280_pressure;Samples;Min_cycle;Max_cycle;Signal;HPM_P1;HPM_P2
2022/08/22 00:00:48;;;;;;;12.63;7.22;;;;;;;16.19;88.77;96132.06;4990799;28;20046;-78
2022/08/22 00:03:25;;;;;;;13.07;7.07;;;;;;;16.15;88.60;96134.72;4990436;28;20057;-78
2022/08/22 00:06:11;;;;;;;9.63;6.50;;;;;;;16.11;88.60;96135.78;4990650;28;20054;-78
2022/08/22 00:08:49;;;;;;;9.23;6.35;;;;;;;16.14;88.92;96137.84;4990776;28;20147;-77
2022/08/22 00:11:24;;;;;;;10.68;7.07;;;;;;;16.05;88.60;96137.25;4990326;28;20612;-78
2022/08/22 00:14:00;;;;;;;9.45;6.78;;;;;;;16.11;88.25;96141.28;4990918;28;20054;-78
2022/08/22 00:16:35;;;;;;;8.70;6.03;;;;;;;16.08;88.20;96133.78;4990338;28;20093;-78
2022/08/22 00:19:12;;;;;;;9.52;6.72;;;;;;;16.00;88.43;96137.50;4991489;28;20516;-77
2022/08/22 00:21:45;;;;;;;12.93;8.23;;;;;;;16.01;88.55;96141.84;4993358;28;20054;-78
2022/08/22 00:24:24;;;;;;;9.27;6.80;;;;;;;15.96;88.30;96136.63;4974706;28;20513;-77
2022/08/22 00:26:55;;;;;;;10.23;7.22;;;;;;;15.87;88.67;96137.63;4978392;28;20046;-78
2022/08/22 00:29:27;;;;;;;11.02;6.85;;;;;;;15.84;88.74;96135.59;4981403;28;20054;-77
2022/08/22 00:32:04;;;;;;;10.88;6.85;;;;;;;15.81;89.14;96132.75;4981185;28;20050;-76
2022/08/22 00:34:36;;;;;;;13.15;6.65;;;;;;;15.76;88.94;96122.84;4981723;28;20043;-77
2022/08/22 00:37:08;;;;;;;7.03;4.60;;;;;;;15.77;89.02;96129.94;4980943;28;20051;-77
2022/08/22 00:39:40;;;;;;;8.98;5.78;;;;;;;15.77;88.97;96124.47;4977625;28;20045;-77
2022/08/22 00:42:44;;;;;;;6.60;5.30;;;;;;;15.78;88.83;96119.75;4977566;28;20150;-78
2022/08/22 00:45:54;;;;;;;9.48;6.50;;;;;;;15.64;88.97;96111.97;4956003;28;20564;-77
2022/08/22 00:48:58;;;;;;;9.38;6.70;;;;;;;15.54;89.43;96116.03;4976716;28;20062;-78
2022/08/22 00:51:59;;;;;;;9.10;6.65;;;;;;;15.54;89.69;96109.75;4976839;28;20042;-77
2022/08/22 00:54:41;;;;;;;9.02;6.10;;;;;;;15.55;89.78;96111.34;4960880;28;20050;-78
2022/08/22 00:57:34;;;;;;;9.57;6.60;;;;;;;15.67;90.04;96113.22;4976349;28;20043;-78
2022/08/22 01:00:12;;;;;;;8.10;5.83;;;;;;;15.77;90.61;96116.22;4976520;28;20039;-78
2022/08/22 01:03:00;;;;;;;10.23;5.78;;;;;;;15.72;88.28;96119.25;4976725;28;20046;-79
2022/08/22 01:05:50;;;;;;;8.80;5.78;;;;;;;15.61;88.43;96137.38;4976221;28;20449;-78
2022/08/22 01:08:34;;;;;;;8.55;5.35;;;;;;;15.54;88.53;96128.97;4975535;28;20050;-79
2022/08/22 01:11:18;;;;;;;11.95;6.38;;;;;;;15.34;89.00;96117.91;4976350;28;20054;-82
2022/08/22 01:14:01;;;;;;;8.57;6.47;;;;;;;15.43;89.07;96136.94;4976213;28;20058;-77
2022/08/22 01:16:50;;;;;;;12.40;6.70;;;;;;;15.34;89.86;96128.88;4975359;28;20043;-80
2022/08/22 01:19:56;;;;;;;10.45;6.47;;;;;;;15.45;90.38;96133.81;4975546;28;20565;-80
2022/08/22 01:23:04;;;;;;;10.77;6.60;;;;;;;15.43;90.08;96127.91;4981618;28;20050;-80
2022/08/22 01:26:04;;;;;;;11.13;6.68;;;;;;;15.31;89.99;96124.09;4976953;28;20046;-81
2022/08/22 01:29:01;;;;;;;9.02;5.70;;;;;;;15.38;89.94;96129.75;4972020;28;20042;-79
2022/08/22 01:31:56;;;;;;;7.93;5.68;;;;;;;15.40;90.72;96126.69;4993465;28;20539;-80
2022/08/22 01:34:55;;;;;;;10.80;6.55;;;;;;;15.40;90.74;96124.72;4994342;28;20042;-80
2022/08/22 01:37:59;;;;;;;11.10;6.10;;;;;;;15.46;91.23;96128.00;4994135;28;20064;-81
2022/08/22 01:41:01;;;;;;;11.75;7.57;;;;;;;15.32;91.06;96120.19;4994389;28;20045;-80
2022/08/22 01:43:47;;;;;;;14.50;7.80;;;;;;;15.39;91.18;96120.38;4991087;28;20101;-80
2022/08/22 01:46:35;;;;;;;11.38;6.78;;;;;;;15.33;92.27;96121.78;4994301;28;20057;-80
2022/08/22 01:49:12;;;;;;;9.45;6.25;;;;;;;15.43;91.73;96127.91;4994211;28;20050;-77
2022/08/22 01:51:49;;;;;;;8.82;6.28;;;;;;;15.52;90.85;96134.81;4993665;28;20043;-78
2022/08/22 01:54:29;;;;;;;8.57;6.03;;;;;;;15.56;90.57;96134.91;4974041;28;20058;-77
2022/08/22 01:57:01;;;;;;;10.10;6.35;;;;;;;15.57;90.68;96137.28;4974419;28;20047;-78
2022/08/22 01:59:33;;;;;;;8.70;6.07;;;;;;;15.64;90.89;96142.16;4974073;28;20039;-79
2022/08/22 02:02:04;;;;;;;9.20;6.22;;;;;;;15.67;91.05;96144.22;4971886;28;20061;-79
2022/08/22 02:04:40;;;;;;;8.55;6.53;;;;;;;15.59;91.11;96145.94;4980955;28;20039;-79
2022/08/22 02:07:17;;;;;;;8.55;5.95;;;;;;;15.69;91.04;96144.66;4973367;28;20051;-77
2022/08/22 02:09:59;;;;;;;10.05;6.72;;;;;;;15.66;91.07;96145.38;4973697;28;20054;-79
2022/08/22 02:12:35;;;;;;;10.38;6.28;;;;;;;15.67;91.10;96146.97;4972880;28;20051;-78
2022/08/22 02:15:12;;;;;;;9.95;6.57;;;;;;;15.66;91.29;96139.88;4973803;28;20051;-79
2022/08/22 02:18:09;;;;;;;7.90;5.72;;;;;;;15.69;90.75;96149.34;4973353;28;20043;-78
2022/08/22 02:20:40;;;;;;;9.25;5.50;;;;;;;15.73;90.62;96140.03;4973477;28;20537;-79
2022/08/22 02:23:19;;;;;;;9.75;5.68;;;;;;;15.74;90.60;96147.13;4985494;28;20469;-77
2022/08/22 02:25:54;;;;;;;9.35;5.97;;;;;;;15.81;90.71;96147.28;4992979;28;20056;-79
2022/08/22 02:28:32;;;;;;;8.45;5.85;;;;;;;15.78;89.53;96148.00;4992095;28;20437;-79
2022/08/22 02:31:05;;;;;;;10.90;6.30;;;;;;;15.75;88.96;96147.91;4993160;28;20159;-79
2022/08/22 02:33:40;;;;;;;9.25;5.75;;;;;;;15.74;89.34;96151.81;4992546;28;20038;-78
2022/08/22 02:36:15;;;;;;;12.10;6.07;;;;;;;15.75;89.80;96148.72;4992126;28;20058;-77
2022/08/22 02:38:56;;;;;;;8.40;6.03;;;;;;;15.72;90.00;96151.38;4992357;28;20533;-77
2022/08/22 02:41:30;;;;;;;11.63;7.35;;;;;;;15.56;89.95;96143.13;4980853;28;20050;-78
2022/08/22 02:44:01;;;;;;;8.30;6.47;;;;;;;15.42;90.63;96151.00;4992733;28;20658;-79
2022/08/22 02:46:31;;;;;;;8.50;5.95;;;;;;;15.57;90.14;96152.97;4991868;28;20050;-78
2022/08/22 02:49:06;;;;;;;10.68;6.07;;;;;;;15.49;90.01;96151.19;4992348;28;20049;-79
2022/08/22 02:51:43;;;;;;;14.85;6.90;;;;;;;15.43;89.83;96144.38;4992217;28;20062;-78
2022/08/22 02:54:17;;;;;;;10.85;6.50;;;;;;;15.44;89.46;96146.75;4972283;28;20054;-78
2022/08/22 02:56:50;;;;;;;9.95;6.50;;;;;;;15.32;90.11;96142.16;4972564;28;20470;-78
2022/08/22 02:59:31;;;;;;;9.75;6.75;;;;;;;15.31;90.21;96135.06;4972348;28;20051;-78
2022/08/22 03:02:18;;;;;;;9.93;6.38;;;;;;;15.39;90.16;96142.31;4972720;28;20085;-81
2022/08/22 03:04:51;;;;;;;8.88;6.00;;;;;;;15.49;90.31;96149.22;4972307;28;20051;-78
2022/08/22 03:07:31;;;;;;;9.18;6.00;;;;;;;15.61;90.43;96151.09;4972015;28;20042;-79
2022/08/22 03:10:10;;;;;;;8.55;5.80;;;;;;;15.64;89.58;96147.66;4972311;28;20101;-78
2022/08/22 03:12:44;;;;;;;9.35;5.78;;;;;;;15.61;89.68;96151.09;4972397;28;20074;-79
2022/08/22 03:15:20;;;;;;;9.18;5.72;;;;;;;15.64;89.86;96147.66;4971854;28;20078;-78
2022/08/22 03:17:52;;;;;;;8.35;6.00;;;;;;;15.74;90.24;96151.81;4972268;28;20051;-78
2022/08/22 03:20:39;;;;;;;11.27;6.60;;;;;;;15.70;89.25;96151.72;4971922;28;20054;-77
2022/08/22 03:23:14;;;;;;;8.98;5.90;;;;;;;15.64;89.01;96147.66;4983818;28;20043;-78
2022/08/22 03:25:51;;;;;;;9.73;6.40;;;;;;;15.54;89.51;96150.91;4991354;28;20053;-79
2022/08/22 03:28:23;;;;;;;10.30;6.00;;;;;;;15.58;89.54;96144.34;4991247;28;20556;-78
2022/08/22 03:30:58;;;;;;;8.55;5.45;;;;;;;15.62;89.38;96149.94;4991374;28;20053;-79
2022/08/22 03:33:27;;;;;;;10.30;6.72;;;;;;;15.62;88.53;96144.47;4991087;28;20052;-80
2022/08/22 03:36:01;;;;;;;9.13;6.30;;;;;;;15.58;89.29;96151.81;4991155;28;20093;-77
2022/08/22 03:38:39;;;;;;;10.20;6.60;;;;;;;15.56;89.59;96145.88;4990886;28;20039;-78
2022/08/22 03:41:37;;;;;;;10.35;7.15;;;;;;;15.31;89.15;96143.31;4990940;28;20501;-78
2022/08/22 03:44:27;;;;;;;13.88;7.35;;;;;;;15.25;89.72;96141.97;4990495;28;20070;-78
2022/08/22 03:47:21;;;;;;;8.93;6.22;;;;;;;15.22;89.83;96147.38;4991402;28;20046;-79
2022/08/22 03:50:18;;;;;;;9.00;5.95;;;;;;;15.32;90.69;96142.16;4991054;28;20054;-78
2022/08/22 03:53:10;;;;;;;9.15;5.90;;;;;;;15.31;89.64;96151.53;4990340;28;20471;-78
2022/08/22 03:56:07;;;;;;;11.50;6.25;;;;;;;15.25;90.15;96144.72;4990640;28;20042;-79
2022/08/22 03:59:00;;;;;;;11.02;6.97;;;;;;;15.12;89.87;96148.69;4990886;28;20049;-78
2022/08/22 04:02:07;;;;;;;12.25;6.72;;;;;;;15.18;90.14;96149.22;4990630;28;20042;-79
2022/08/22 04:04:57;;;;;;;11.75;6.18;;;;;;;15.25;90.33;96147.47;4990504;28;20050;-80
2022/08/22 04:08:04;;;;;;;8.52;6.25;;;;;;;15.29;90.42;96155.78;4990638;28;20054;-78
2022/08/22 04:10:58;;;;;;;9.60;6.32;;;;;;;15.28;90.12;96157.72;4987290;28;20054;-78
2022/08/22 04:13:53;;;;;;;10.50;6.72;;;;;;;15.16;90.04;96155.06;4990378;28;20050;-78
2022/08/22 04:16:59;;;;;;;10.55;6.10;;;;;;;15.20;90.55;96161.44;4990518;28;20521;-77
2022/08/22 04:19:42;;;;;;;10.13;6.45;;;;;;;15.21;90.75;96167.72;4990120;28;20048;-78
2022/08/22 04:22:19;;;;;;;7.73;6.10;;;;;;;15.23;91.37;96166.22;4989976;28;20042;-79
2022/08/22 04:24:53;;;;;;;10.73;6.65;;;;;;;15.22;90.13;96164.63;4990728;28;20133;-77
2022/08/22 04:27:27;;;;;;;12.50;6.80;;;;;;;15.08;89.96;96158.75;4990108;28;20043;-78
2022/08/22 04:30:01;;;;;;;11.23;5.85;;;;;;;14.96;89.70;96158.84;4990755;28;20081;-77
2022/08/22 04:32:35;;;;;;;10.60;6.70;;;;;;;15.03;89.97;96159.81;4990353;28;20042;-77
2022/08/22 04:35:08;;;;;;;7.35;5.53;;;;;;;15.05;90.47;96167.69;4990874;28;20042;-78
2022/08/22 04:37:41;;;;;;;10.57;6.28;;;;;;;15.05;90.70;96167.69;4990480;28;20069;-79
2022/08/22 04:40:16;;;;;;;9.85;6.60;;;;;;;15.04;90.11;96168.84;4990320;28;20504;-80
2022/08/22 04:42:49;;;;;;;10.30;6.47;;;;;;;14.98;90.10;96170.22;4990825;28;20529;-78
2022/08/22 04:45:19;;;;;;;;;;;;;;;14.91;90.27;96175.53;4990653;28;20134;-78
2022/08/22 04:47:52;;;;;;;9.20;5.95;;;;;;;14.87;90.93;96170.72;4990126;28;20312;-78
2022/08/22 04:50:23;;;;;;;12.27;6.72;;;;;;;14.85;91.01;96178.53;4990002;28;20536;-78
2022/08/22 04:53:09;;;;;;;9.30;6.68;;;;;;;14.81;91.17;96174.88;4989879;28;20497;-78
2022/08/22 04:55:46;;;;;;;10.65;6.63;;;;;;;14.73;91.05;96175.06;4990384;28;20042;-80
2022/08/22 04:58:26;;;;;;;11.38;6.65;;;;;;;14.68;91.36;96181.56;4990129;28;20077;-79
2022/08/22 05:01:12;;;;;;;10.55;5.95;;;;;;;14.66;91.47;96178.38;4990447;28;20046;-79
2022/08/22 05:03:44;;;;;;;10.68;6.60;;;;;;;14.65;91.82;96174.03;4990361;28;20043;-80
2022/08/22 05:06:14;;;;;;;15.30;8.20;;;;;;;14.59;92.18;96169.94;4992919;28;20051;-79
2022/08/22 05:08:45;;;;;;;14.38;7.40;;;;;;;14.39;92.43;96170.91;4994264;28;20050;-81
2022/08/22 05:11:17;;;;;;;10.65;6.78;;;;;;;14.51;92.33;96176.38;4993220;28;20057;-78
2022/08/22 05:13:48;;;;;;;12.77;7.88;;;;;;;14.54;92.18;96179.22;4994092;28;20083;-80
2022/08/22 05:16:21;;;;;;;13.50;8.70;;;;;;;14.49;92.36;96175.94;4993142;28;20417;-80
2022/08/22 05:18:50;;;;;;;12.13;8.35;;;;;;;14.51;92.45;96179.94;4993794;28;20046;-79
2022/08/22 05:21:20;;;;;;;14.02;8.18;;;;;;;14.62;92.36;96174.75;4992371;28;20054;-78
2022/08/22 05:23:50;;;;;;;13.02;7.95;;;;;;;14.74;92.36;96174.69;4993256;28;20058;-78
2022/08/22 05:26:19;;;;;;;12.30;8.75;;;;;;;14.79;92.11;96168.97;4992743;28;20059;-77
2022/08/22 05:28:49;;;;;;;10.30;7.45;;;;;;;14.93;92.36;96173.22;4993744;28;20043;-78
2022/08/22 05:31:23;;;;;;;12.65;8.07;;;;;;;14.91;91.99;96179.06;4993064;28;20050;-79
2022/08/22 05:33:52;;;;;;;12.00;7.88;;;;;;;14.92;91.59;96177.13;4993776;28;20054;-77
2022/08/22 05:36:25;;;;;;;12.55;8.68;;;;;;;14.95;91.42;96177.22;4993147;28;20046;-78
2022/08/22 05:38:56;;;;;;;14.00;9.80;;;;;;;14.93;91.76;96178.72;4996635;28;20498;-77
2022/08/22 05:41:26;;;;;;;14.10;8.35;;;;;;;15.07;92.43;96179.09;4998749;28;20053;-77
2022/08/22 05:43:55;;;;;;;10.63;7.38;;;;;;;15.17;92.00;96189.56;4999690;28;20046;-79
2022/08/22 05:46:32;;;;;;;10.43;8.00;;;;;;;15.25;91.58;96183.13;4999313;28;20387;-78
2022/08/22 05:49:01;;;;;;;12.13;9.23;;;;;;;15.21;90.86;96189.66;4999535;28;20054;-78
2022/08/22 05:51:39;;;;;;;18.48;9.55;;;;;;;15.13;91.80;96185.91;4996076;28;20045;-80
2022/08/22 05:54:12;;;;;;;11.95;8.55;;;;;;;15.27;91.92;96200.03;4976384;28;20046;-79
2022/08/22 05:56:42;;;;;;;13.35;8.77;;;;;;;15.32;92.04;96193.47;4976446;28;20046;-79
2022/08/22 05:59:21;;;;;;;13.70;9.10;;;;;;;15.45;91.75;96199.69;4975899;28;20053;-80
2022/08/22 06:02:00;;;;;;;13.35;9.77;;;;;;;15.52;91.94;96197.94;4975741;28;20051;-78
2022/08/22 06:04:32;;;;;;;14.05;8.98;;;;;;;15.58;91.79;96206.69;4975514;28;20051;-80
2022/08/22 06:07:05;;;;;;;14.63;8.73;;;;;;;15.64;92.00;96197.84;4975912;28;20051;-79
2022/08/22 06:09:39;;;;;;;11.50;8.20;;;;;;;15.70;91.86;96201.13;4975481;28;20043;-79
2022/08/22 06:12:10;;;;;;;14.02;9.60;;;;;;;15.76;91.96;96205.19;4974901;28;20043;-78
2022/08/22 06:14:43;;;;;;;14.05;9.45;;;;;;;15.85;91.86;96197.59;4974986;28;20059;-78
2022/08/22 06:17:16;;;;;;;13.30;8.93;;;;;;;15.96;91.72;96202.53;4973322;28;20051;-77
2022/08/22 06:19:46;;;;;;;13.30;9.73;;;;;;;16.08;92.46;96206.00;4974923;28;20050;-78
2022/08/22 06:22:17;;;;;;;13.32;10.20;;;;;;;16.22;92.08;96207.47;4980086;28;20122;-78
2022/08/22 06:24:44;;;;;;;18.38;10.18;;;;;;;16.28;91.35;96204.06;4994111;28;20050;-78
2022/08/22 06:27:14;;;;;;;13.23;10.20;;;;;;;16.31;90.82;96208.84;4993586;28;20038;-79
2022/08/22 06:29:45;;;;;;;16.70;10.73;;;;;;;16.33;90.52;96206.53;5034434;23;20026;-88
2022/08/22 06:32:16;;;;;;;15.07;9.88;;;;;;;16.44;89.04;96210.34;5051196;23;20042;-81
2022/08/22 06:34:45;;;;;;;17.10;10.50;;;;;;;16.42;88.53;96209.88;5015358;28;20061;-81
2022/08/22 06:37:18;;;;;;;16.20;9.75;;;;;;;16.51;88.55;96211.66;5014498;28;20056;-80
2022/08/22 06:39:49;;;;;;;14.75;8.07;;;;;;;16.56;88.98;96214.13;5010619;28;20038;-80
2022/08/22 06:42:21;;;;;;;13.30;9.10;;;;;;;16.68;89.66;96211.22;5004487;28;20076;-81
2022/08/22 06:44:52;;;;;;;15.57;10.13;;;;;;;16.75;89.94;96216.91;5014440;28;20088;-81
2022/08/22 06:47:23;;;;;;;15.63;10.15;;;;;;;16.78;89.02;96218.13;5014304;28;20132;-81
2022/08/22 06:49:53;;;;;;;18.33;10.05;;;;;;;16.84;88.00;96209.22;5014606;28;20133;-81
2022/08/22 06:52:23;;;;;;;14.73;9.60;;;;;;;16.89;87.37;96219.16;5014717;28;20537;-81
2022/08/22 06:54:58;;;;;;;12.30;9.45;;;;;;;16.90;88.28;96218.78;5021588;28;20034;-82
2022/08/22 06:57:33;;;;;;;15.45;8.80;;;;;;;17.04;88.91;96212.78;5041100;23;20061;-77
2022/08/22 07:00:02;;;;;;;15.73;10.82;;;;;;;17.13;88.90;96216.09;5012454;28;20497;-84
2022/08/22 07:02:36;;;;;;;13.57;9.32;;;;;;;17.13;86.54;96204.31;5027167;28;20105;-84
2022/08/22 07:05:04;;;;;;;13.77;9.63;;;;;;;17.17;84.81;96205.97;5023578;28;20046;-79
2022/08/22 07:07:31;;;;;;;24.13;16.30;;;;;;;17.23;84.20;96203.72;5012143;28;20042;-78
2022/08/22 07:09:57;;;;;;;14.63;10.13;;;;;;;17.43;85.92;96216.25;5011882;28;20494;-77
2022/08/22 07:12:29;;;;;;;17.13;10.02;;;;;;;17.47;87.07;96219.88;5011518;28;20048;-78
2022/08/22 07:15:00;;;;;;;14.65;9.73;;;;;;;17.69;87.14;96215.53;5010417;28;20456;-79
2022/08/22 07:17:29;;;;;;;15.75;9.52;;;;;;;17.71;85.16;96215.97;5012157;28;20049;-78
2022/08/22 07:20:09;;;;;;;15.70;9.80;;;;;;;17.84;85.12;96210.31;5012744;28;20108;-80
2022/08/22 07:22:37;;;;;;;12.27;8.60;;;;;;;17.89;81.05;96218.25;5013076;28;20038;-79
2022/08/22 07:25:09;;;;;;;11.48;8.43;;;;;;;18.04;80.21;96219.28;5011285;28;20054;-77
2022/08/22 07:27:53;;;;;;;12.13;7.65;;;;;;;18.20;77.47;96222.69;5011460;28;20042;-78
2022/08/22 07:30:22;;;;;;;10.88;7.00;;;;;;;18.28;76.50;96218.88;5011206;28;20112;-78
2022/08/22 07:32:55;;;;;;;18.02;8.95;;;;;;;18.33;76.18;96226.84;5011440;28;20509;-77
2022/08/22 07:35:28;;;;;;;9.85;7.05;;;;;;;18.51;76.83;96222.38;5024768;28;20054;-84
2022/08/22 07:37:59;;;;;;;;;;;;;;;18.62;66.46;96221.72;5018731;28;20091;-83
2022/08/22 07:40:32;;;;;;;8.98;5.28;;;;;;;18.90;67.71;96224.09;4995064;28;20444;-79
2022/08/22 07:43:05;;;;;;;10.20;4.28;;;;;;;19.36;63.26;96215.53;4992254;28;20549;-77
2022/08/22 07:45:39;;;;;;;13.02;5.10;;;;;;;19.91;63.41;96227.56;4993446;28;20101;-76
2022/08/22 07:48:17;;;;;;;9.85;4.20;;;;;;;20.31;62.08;96225.91;4993556;28;20050;-76
2022/08/22 07:50:57;;;;;;;8.75;4.40;;;;;;;20.49;59.02;96218.56;4991171;28;20042;-75
2022/08/22 07:53:33;;;;;;;9.68;4.90;;;;;;;20.64;60.58;96221.41;4993425;28;20413;-78
2022/08/22 07:56:05;;;;;;;8.60;4.82;;;;;;;20.89;59.26;96222.34;4992267;28;20042;-79
2022/08/22 07:58:35;;;;;;;10.65;5.65;;;;;;;20.93;59.56;96220.34;4991843;28;20050;-78
2022/08/22 08:01:02;;;;;;;11.05;5.57;;;;;;;20.82;59.85;96217.53;4991133;28;20046;-75
2022/08/22 08:03:30;;;;;;;10.65;4.97;;;;;;;20.92;61.47;96216.00;4995554;28;20043;-81
2022/08/22 08:06:01;;;;;;;8.57;4.90;;;;;;;21.04;58.94;96217.66;4991680;28;20050;-78
2022/08/22 08:08:34;;;;;;;10.45;4.82;;;;;;;20.80;57.21;96219.13;4991345;28;20038;-81
2022/08/22 08:11:03;;;;;;;10.60;4.35;;;;;;;20.44;59.10;96224.41;4996721;28;20046;-80
2022/08/22 08:13:35;;;;;;;10.70;4.57;;;;;;;20.29;58.89;96228.25;4993166;28;20054;-80
2022/08/22 08:16:04;;;;;;;15.33;4.23;;;;;;;20.15;58.61;96231.72;4995962;28;20050;-82
2022/08/22 08:18:35;;;;;;;8.45;4.10;;;;;;;20.19;59.16;96231.72;4996080;28;20270;-80
2022/08/22 08:21:06;;;;;;;8.60;4.63;;;;;;;20.24;61.41;96220.31;4993367;28;20394;-78
2022/08/22 08:23:40;;;;;;;8.98;4.28;;;;;;;20.27;58.90;96225.09;4992222;28;20073;-80
2022/08/22 08:26:10;;;;;;;11.90;4.60;;;;;;;20.19;60.37;96224.22;4995683;28;20050;-80
2022/08/22 08:28:40;;;;;;;10.07;4.45;;;;;;;20.33;59.43;96221.56;4995993;28;20046;-79
2022/08/22 08:31:20;;;;;;;13.00;5.13;;;;;;;20.27;60.83;96219.56;4991031;28;20121;-79
2022/08/22 08:33:50;;;;;;;8.80;4.57;;;;;;;20.44;61.58;96209.78;4991158;28;20516;-79
2022/08/22 08:36:37;;;;;;;8.93;4.13;;;;;;;20.66;59.52;96219.81;4990785;28;20047;-81
2022/08/22 08:39:13;;;;;;;8.27;4.10;;;;;;;20.80;60.17;96214.38;4991033;28;20074;-79
2022/08/22 08:42:22;;;;;;;9.25;4.15;;;;;;;20.72;57.69;96209.97;4994427;28;20054;-77
2022/08/22 08:45:07;;;;;;;9.65;4.90;;;;;;;20.84;61.17;96209.66;4994351;28;20525;-82
2022/08/22 08:48:24;;;;;;;8.93;4.60;;;;;;;21.03;63.05;96214.06;4997031;28;20043;-79
2022/08/22 08:51:21;;;;;;;11.43;4.53;;;;;;;21.17;58.72;96210.56;4953491;29;20058;-78
2022/08/22 08:54:09;;;;;;;9.35;4.47;;;;;;;21.19;58.47;96213.75;4952287;29;20047;-79
2022/08/22 08:56:41;;;;;;;11.13;4.30;;;;;;;21.13;57.59;96208.97;4985149;28;20497;-78
2022/08/22 08:59:17;;;;;;;10.98;4.95;;;;;;;21.06;58.84;96210.53;4995718;28;20043;-79
2022/08/22 09:02:10;;;;;;;8.75;4.55;;;;;;;21.01;58.07;96212.91;4994997;28;20042;-78
2022/08/22 09:05:15;;;;;;;9.70;5.13;;;;;;;20.88;60.90;96206.91;4994797;28;20061;-78
2022/08/22 09:08:04;;;;;;;9.70;5.38;;;;;;;20.82;59.77;96208.44;4994463;28;20081;-79
2022/08/22 09:10:59;;;;;;;11.10;5.03;;;;;;;21.00;57.73;96201.03;4993737;28;20038;-78
2022/08/22 09:13:51;;;;;;;10.40;5.15;;;;;;;21.13;58.19;96208.97;4995160;28;20049;-79
2022/08/22 09:16:35;;;;;;;11.13;5.28;;;;;;;21.16;59.72;96205.44;4994106;28;20134;-79
2022/08/22 09:19:48;;;;;;;12.70;5.57;;;;;;;21.15;60.36;96209.41;4996088;28;20058;-81
2022/08/22 09:22:47;;;;;;;12.68;5.75;;;;;;;21.21;60.38;96197.53;4992918;28;20046;-80
2022/08/22 09:25:35;;;;;;;10.60;5.03;;;;;;;21.45;62.51;96212.66;4995862;28;20053;-80
2022/08/22 09:28:12;;;;;;;14.13;5.18;;;;;;;21.61;58.09;96213.13;4993746;28;20505;-77
2022/08/22 09:30:52;;;;;;;11.90;5.22;;;;;;;21.70;56.92;96198.06;4994280;28;20042;-79
2022/08/22 09:33:23;;;;;;;14.85;5.97;;;;;;;21.72;59.29;96201.25;4993051;28;20049;-78
2022/08/22 09:35:59;;;;;;;9.95;5.22;;;;;;;21.79;57.57;96201.25;4993732;28;20046;-81
2022/08/22 09:38:34;;;;;;;12.70;4.93;;;;;;;21.84;55.36;96200.84;4992743;28;20038;-78
2022/08/22 09:41:11;;;;;;;10.40;5.15;;;;;;;22.07;56.13;96204.03;4992946;28;20061;-77
2022/08/22 09:43:44;;;;;;;8.90;4.60;;;;;;;22.20;55.48;96210.00;4993133;28;20042;-79
2022/08/22 09:46:17;;;;;;;12.55;5.30;;;;;;;22.31;54.01;96204.44;4993160;28;20129;-79
2022/08/22 09:48:49;;;;;;;;;;;;;;;22.29;54.94;96195.72;4993462;28;20058;-79
2022/08/22 09:51:25;;;;;;;9.30;4.82;;;;;;;22.29;53.82;96195.72;4991852;28;19922;-77
2022/08/22 09:54:29;;;;;;;11.05;5.20;;;;;;;22.23;54.60;96197.31;4992807;28;20046;-76
2022/08/22 09:57:20;;;;;;;10.57;4.80;;;;;;;22.29;52.24;96196.53;4991317;28;20046;-76
2022/08/22 10:00:12;;;;;;;8.48;4.72;;;;;;;22.48;53.45;96198.06;4993069;28;20076;-77
2022/08/22 10:02:49;;;;;;;14.57;6.20;;;;;;;22.75;53.80;96190.06;4992689;28;20089;-77
2022/08/22 10:05:23;;;;;;;9.70;4.10;;;;;;;22.83;49.49;96191.63;4992369;28;20050;-77
2022/08/22 10:08:01;;;;;;;11.38;3.97;;;;;;;22.99;51.88;96193.19;4992850;28;20043;-77
2022/08/22 10:10:50;;;;;;;10.98;4.18;;;;;;;23.18;52.18;96190.75;4992361;28;20077;-78
2022/08/22 10:13:28;;;;;;;9.35;3.47;;;;;;;23.40;48.34;96196.97;4992261;28;20052;-75
2022/08/22 10:16:13;;;;;;;10.75;3.60;;;;;;;23.41;47.47;96197.75;4992634;28;20058;-75
2022/08/22 10:18:49;;;;;;;7.93;3.60;;;;;;;22.77;44.25;96187.69;4992363;28;20517;-77
2022/08/22 10:21:23;;;;;;;7.10;3.20;;;;;;;22.96;46.59;96183.69;4991967;28;20065;-77
2022/08/22 10:23:54;;;;;;;9.65;3.33;;;;;;;23.11;53.01;96185.19;4992155;28;20061;-79
2022/08/22 10:26:31;;;;;;;5.18;2.55;;;;;;;23.34;47.83;96178.34;4991799;28;20516;-77
2022/08/22 10:29:10;;;;;;;7.97;2.15;;;;;;;23.55;44.28;96188.56;4992463;28;20046;-76
2022/08/22 10:31:44;;;;;;;5.82;2.72;;;;;;;23.56;45.77;96190.91;4992309;28;20046;-77
2022/08/22 10:34:15;;;;;;;5.63;2.45;;;;;;;23.58;47.86;96196.84;4991495;28;20060;-75
2022/08/22 10:36:54;;;;;;;9.60;3.00;;;;;;;23.50;43.65;96192.56;4992130;28;20068;-76
2022/08/22 10:39:24;;;;;;;7.75;2.97;;;;;;;23.53;45.39;96194.50;4991596;28;20046;-77
2022/08/22 10:42:06;;;;;;;7.85;2.70;;;;;;;23.30;46.77;96197.03;4992241;28;20046;-76
2022/08/22 10:44:42;;;;;;;6.85;2.92;;;;;;;23.46;47.05;96194.56;4991895;28;20042;-76
2022/08/22 10:47:15;;;;;;;8.07;3.15;;;;;;;23.33;45.28;96193.44;4991475;28;20054;-75
2022/08/22 10:49:46;;;;;;;;;;;;;;;23.43;43.86;96192.56;4992501;28;20046;-74
2022/08/22 10:52:20;;;;;;;6.97;2.50;;;;;;;23.52;45.31;96187.38;4990625;28;19922;-76
2022/08/22 10:54:50;;;;;;;7.45;2.97;;;;;;;23.58;43.93;96196.84;4991835;28;20059;-76
2022/08/22 10:57:32;;;;;;;6.07;2.50;;;;;;;23.51;41.50;96185.78;4991080;28;20061;-76
2022/08/22 11:00:06;;;;;;;7.93;2.83;;;;;;;23.35;42.29;96179.94;4991657;28;20057;-76
2022/08/22 11:02:47;;;;;;;5.38;2.20;;;;;;;23.46;45.06;96186.22;4991332;28;20038;-76
2022/08/22 11:05:27;;;;;;;7.20;2.80;;;;;;;23.33;43.32;96190.66;4990978;28;20053;-76
2022/08/22 11:08:06;;;;;;;7.15;2.97;;;;;;;23.59;44.15;96200.41;4991594;28;20069;-76
2022/08/22 11:10:50;;;;;;;8.10;2.53;;;;;;;23.52;43.77;96192.94;4991299;28;20077;-76
2022/08/22 11:13:26;;;;;;;5.65;2.38;;;;;;;23.38;41.73;96187.44;4991325;28;20410;-75
2022/08/22 11:16:00;;;;;;;7.10;2.63;;;;;;;23.40;43.90;96187.84;4991698;28;20053;-75
2022/08/22 11:18:39;;;;;;;7.70;2.42;;;;;;;23.47;42.43;96196.13;4990769;28;20053;-76
2022/08/22 11:21:10;;;;;;;6.78;2.30;;;;;;;23.49;45.70;96192.94;4990941;28;20049;-75
2022/08/22 11:23:43;;;;;;;6.75;2.47;;;;;;;23.58;43.26;96196.06;4990805;28;20050;-76
2022/08/22 11:26:21;;;;;;;10.05;3.88;;;;;;;23.64;46.45;96194.47;4989703;28;20050;-75
2022/08/22 11:29:07;;;;;;;6.43;2.50;;;;;;;23.67;45.24;96193.66;4990425;28;20051;-76
2022/08/22 11:31:46;;;;;;;8.07;3.35;;;;;;;23.68;44.12;96190.47;4990310;28;20046;-77
2022/08/22 11:34:35;;;;;;;7.35;2.53;;;;;;;23.65;42.38;96196.06;4990001;28;20046;-76
2022/08/22 11:37:08;;;;;;;5.70;2.45;;;;;;;23.80;43.81;96194.75;4989863;28;20046;-76
2022/08/22 11:39:41;;;;;;;7.20;2.47;;;;;;;23.56;41.24;96192.91;4991884;28;20065;-79
2022/08/22 11:42:13;;;;;;;10.13;2.83;;;;;;;23.61;43.66;96193.28;5040754;23;20051;-79
2022/08/22 11:44:49;;;;;;;8.27;2.17;;;;;;;23.67;43.27;96193.66;5020116;23;20096;-77
2022/08/22 11:47:19;;;;;;;8.57;2.58;;;;;;;23.83;40.36;96193.16;5010142;28;20049;-77
2022/08/22 11:49:56;;;;;;;5.28;2.17;;;;;;;23.43;39.63;96193.38;5011263;28;20050;-78
2022/08/22 11:52:30;;;;;;;7.68;2.30;;;;;;;23.27;40.73;96186.72;5200653;23;20041;-80
2022/08/22 11:55:19;;;;;;;5.47;2.25;;;;;;;23.50;45.68;96189.78;5011311;28;20100;-80
2022/08/22 12:00:52;;;;;;;7.25;2.42;;;;;;;23.66;43.21;96192.09;5014810;28;20094;-81
2022/08/22 12:09:18;;;;;;;6.40;2.33;;;;;;;23.75;39.27;96194.38;5543462;23;20038;-79
2022/08/22 12:11:58;;;;;;;8.15;2.65;;;;;;;23.93;40.77;96189.50;4990400;28;20054;-78
2022/08/22 12:14:33;;;;;;;5.95;2.28;;;;;;;24.11;40.41;96187.34;4990237;28;20050;-78
2022/08/22 12:17:18;;;;;;;5.95;2.40;;;;;;;24.18;37.49;96190.09;4990721;28;20042;-76
2022/08/22 12:19:58;;;;;;;6.75;2.47;;;;;;;24.01;41.04;96190.22;4998846;28;20038;-81
2022/08/22 12:22:54;;;;;;;6.50;2.00;;;;;;;23.71;36.98;96190.88;4995318;28;20043;-80
2022/08/22 12:25:48;;;;;;;6.18;1.90;;;;;;;24.00;39.90;96180.31;4992267;28;20054;-82
2022/08/22 12:28:25;;;;;;;8.35;2.75;;;;;;;23.90;37.95;96174.41;4990884;28;20047;-79
2022/08/22 12:31:03;;;;;;;5.00;1.98;;;;;;;23.92;37.82;96182.38;4990926;28;20050;-79